sensor_id;sensor_type;location;lat;lon;timestamp;temperature;humidity
76269;DHT22;65088;52.352;4.846;2022-12-18T00:01:38;-0.90;76.20
76269;DHT22;65088;52.352;4.846;2022-12-18T00:04:15;-1.00;76.20
76269;DHT22;65088;52.352;4.846;2022-12-18T00:06:49;-0.90;76.40
76269;DHT22;65088;52.352;4.846;2022-12-18T00:09:19;-0.90;76.40
76269;DHT22;65088;52.352;4.846;2022-12-18T00:11:49;-0.90;76.30
76269;DHT22;65088;52.352;4.846;2022-12-18T00:14:18;-0.90;76.10
76269;DHT22;65088;52.352;4.846;2022-12-18T00:16:47;-0.90;76.20
76269;DHT22;65088;52.352;4.846;2022-12-18T00:19:16;-0.90;76.40
76269;DHT22;65088;52.352;4.846;2022-12-18T00:21:46;-0.90;76.20
76269;DHT22;65088;52.352;4.846;2022-12-18T00:24:17;-1.00;76.10
76269;DHT22;65088;52.352;4.846;2022-12-18T00:26:47;-1.00;76.30
76269;DHT22;65088;52.352;4.846;2022-12-18T00:29:16;-1.00;76.50
76269;DHT22;65088;52.352;4.846;2022-12-18T00:31:46;-0.90;76.30
76269;DHT22;65088;52.352;4.846;2022-12-18T00:34:15;-1.00;76.30
76269;DHT22;65088;52.352;4.846;2022-12-18T00:36:47;-1.00;76.30
76269;DHT22;65088;52.352;4.846;2022-12-18T00:39:19;-1.00;76.40
76269;DHT22;65088;52.352;4.846;2022-12-18T00:41:48;-0.90;76.50
76269;DHT22;65088;52.352;4.846;2022-12-18T00:44:31;-0.90;76.50
76269;DHT22;65088;52.352;4.846;2022-12-18T00:47:00;-0.80;76.60
76269;DHT22;65088;52.352;4.846;2022-12-18T00:49:29;-0.80;76.30
76269;DHT22;65088;52.352;4.846;2022-12-18T00:51:59;-0.80;76.20
76269;DHT22;65088;52.352;4.846;2022-12-18T00:54:31;-1.00;75.90
76269;DHT22;65088;52.352;4.846;2022-12-18T00:57:00;-1.10;76.20
76269;DHT22;65088;52.352;4.846;2022-12-18T00:59:29;-1.10;76.40
76269;DHT22;65088;52.352;4.846;2022-12-18T01:01:59;-1.10;76.40
76269;DHT22;65088;52.352;4.846;2022-12-18T01:04:28;-1.10;76.40
76269;DHT22;65088;52.352;4.846;2022-12-18T01:07:00;-1.00;76.60
76269;DHT22;65088;52.352;4.846;2022-12-18T01:09:32;-1.00;76.30
76269;DHT22;65088;52.352;4.846;2022-12-18T01:12:01;-1.10;76.20
76269;DHT22;65088;52.352;4.846;2022-12-18T01:14:31;-1.10;76.30
76269;DHT22;65088;52.352;4.846;2022-12-18T01:17:00;-1.20;76.20
76269;DHT22;65088;52.352;4.846;2022-12-18T01:19:33;-1.20;76.30
76269;DHT22;65088;52.352;4.846;2022-12-18T01:22:03;-1.20;76.60
76269;DHT22;65088;52.352;4.846;2022-12-18T01:24:36;-1.20;76.50
76269;DHT22;65088;52.352;4.846;2022-12-18T01:27:05;-1.30;76.40
76269;DHT22;65088;52.352;4.846;2022-12-18T01:29:34;-1.30;76.50
76269;DHT22;65088;52.352;4.846;2022-12-18T01:32:04;-1.40;76.60
76269;DHT22;65088;52.352;4.846;2022-12-18T01:34:34;-1.40;76.60
76269;DHT22;65088;52.352;4.846;2022-12-18T01:37:04;-1.40;76.60
76269;DHT22;65088;52.352;4.846;2022-12-18T01:39:37;-1.40;76.60
76269;DHT22;65088;52.352;4.846;2022-12-18T01:42:11;-1.40;76.50
76269;DHT22;65088;52.352;4.846;2022-12-18T01:45:08;-1.40;76.50
76269;DHT22;65088;52.352;4.846;2022-12-18T01:47:51;-1.50;76.60
76269;DHT22;65088;52.352;4.846;2022-12-18T01:50:24;-1.60;76.60
76269;DHT22;65088;52.352;4.846;2022-12-18T01:52:56;-1.60;76.70
76269;DHT22;65088;52.352;4.846;2022-12-18T01:55:31;-1.60;76.80
76269;DHT22;65088;52.352;4.846;2022-12-18T01:58:01;-1.60;76.80
76269;DHT22;65088;52.352;4.846;2022-12-18T02:00:30;-1.60;76.90
76269;DHT22;65088;52.352;4.846;2022-12-18T02:02:59;-1.50;76.90
76269;DHT22;65088;52.352;4.846;2022-12-18T02:05:38;-1.50;76.70
76269;DHT22;65088;52.352;4.846;2022-12-18T02:08:12;-1.50;76.90
76269;DHT22;65088;52.352;4.846;2022-12-18T02:10:56;-1.50;77.00
76269;DHT22;65088;52.352;4.846;2022-12-18T02:13:38;-1.50;76.90
76269;DHT22;65088;52.352;4.846;2022-12-18T02:16:18;-1.50;76.90
76269;DHT22;65088;52.352;4.846;2022-12-18T02:18:50;-1.50;77.00
76269;DHT22;65088;52.352;4.846;2022-12-18T02:21:28;-1.50;76.80
76269;DHT22;65088;52.352;4.846;2022-12-18T02:24:13;-1.50;76.70
76269;DHT22;65088;52.352;4.846;2022-12-18T02:26:50;-1.50;76.80
76269;DHT22;65088;52.352;4.846;2022-12-18T02:29:25;-1.50;76.90
76269;DHT22;65088;52.352;4.846;2022-12-18T02:31:57;-1.50;76.90
76269;DHT22;65088;52.352;4.846;2022-12-18T02:34:29;-1.50;77.00
76269;DHT22;65088;52.352;4.846;2022-12-18T02:37:02;-1.40;77.10
76269;DHT22;65088;52.352;4.846;2022-12-18T02:39:36;-1.40;76.70
76269;DHT22;65088;52.352;4.846;2022-12-18T02:42:10;-1.50;76.70
76269;DHT22;65088;52.352;4.846;2022-12-18T02:44:44;-1.50;76.70
76269;DHT22;65088;52.352;4.846;2022-12-18T02:47:18;-1.60;76.70
76269;DHT22;65088;52.352;4.846;2022-12-18T02:49:56;-1.60;76.90
76269;DHT22;65088;52.352;4.846;2022-12-18T02:52:38;-1.60;76.70
76269;DHT22;65088;52.352;4.846;2022-12-18T02:55:22;-1.70;76.90
76269;DHT22;65088;52.352;4.846;2022-12-18T02:58:04;-1.70;77.10
76269;DHT22;65088;52.352;4.846;2022-12-18T03:00:40;-1.70;77.00
76269;DHT22;65088;52.352;4.846;2022-12-18T03:03:14;-1.80;76.60
76269;DHT22;65088;52.352;4.846;2022-12-18T03:05:48;-1.90;76.70
76269;DHT22;65088;52.352;4.846;2022-12-18T03:08:21;-2.10;76.70
76269;DHT22;65088;52.352;4.846;2022-12-18T03:10:56;-2.20;77.00
76269;DHT22;65088;52.352;4.846;2022-12-18T03:13:37;-2.30;77.00
76269;DHT22;65088;52.352;4.846;2022-12-18T03:16:11;-2.30;77.20
76269;DHT22;65088;52.352;4.846;2022-12-18T03:18:45;-2.30;77.30
76269;DHT22;65088;52.352;4.846;2022-12-18T03:21:20;-2.40;77.30
76269;DHT22;65088;52.352;4.846;2022-12-18T03:23:51;-2.40;77.40
76269;DHT22;65088;52.352;4.846;2022-12-18T03:26:28;-2.40;77.30
76269;DHT22;65088;52.352;4.846;2022-12-18T03:29:08;-2.50;77.40
76269;DHT22;65088;52.352;4.846;2022-12-18T03:31:40;-2.50;77.40
76269;DHT22;65088;52.352;4.846;2022-12-18T03:34:15;-2.50;77.30
76269;DHT22;65088;52.352;4.846;2022-12-18T03:36:47;-2.60;77.50
76269;DHT22;65088;52.352;4.846;2022-12-18T03:39:24;-2.60;77.60
76269;DHT22;65088;52.352;4.846;2022-12-18T03:42:04;-2.60;77.70
76269;DHT22;65088;52.352;4.846;2022-12-18T03:44:50;-2.60;77.70
76269;DHT22;65088;52.352;4.846;2022-12-18T03:47:33;-2.60;77.60
76269;DHT22;65088;52.352;4.846;2022-12-18T03:50:14;-2.60;77.80
76269;DHT22;65088;52.352;4.846;2022-12-18T03:52:55;-2.60;77.80
76269;DHT22;65088;52.352;4.846;2022-12-18T03:55:30;-2.60;77.70
76269;DHT22;65088;52.352;4.846;2022-12-18T03:58:13;-2.60;77.60
76269;DHT22;65088;52.352;4.846;2022-12-18T04:01:07;-2.70;77.70
76269;DHT22;65088;52.352;4.846;2022-12-18T04:03:47;-2.70;77.70
76269;DHT22;65088;52.352;4.846;2022-12-18T04:06:25;-2.80;77.60
76269;DHT22;65088;52.352;4.846;2022-12-18T04:08:56;-2.80;77.60
76269;DHT22;65088;52.352;4.846;2022-12-18T04:11:26;-2.90;77.50
76269;DHT22;65088;52.352;4.846;2022-12-18T04:14:02;-2.90;77.60
76269;DHT22;65088;52.352;4.846;2022-12-18T04:16:36;-3.00;77.50
76269;DHT22;65088;52.352;4.846;2022-12-18T04:19:16;-3.10;77.60
76269;DHT22;65088;52.352;4.846;2022-12-18T04:21:50;-3.10;77.80
76269;DHT22;65088;52.352;4.846;2022-12-18T04:24:21;-3.20;78.00
76269;DHT22;65088;52.352;4.846;2022-12-18T04:27:02;-3.20;77.90
76269;DHT22;65088;52.352;4.846;2022-12-18T04:29:41;-3.20;77.90
76269;DHT22;65088;52.352;4.846;2022-12-18T04:32:15;-3.20;78.00
76269;DHT22;65088;52.352;4.846;2022-12-18T04:34:45;-3.30;78.10
76269;DHT22;65088;52.352;4.846;2022-12-18T04:37:17;-3.30;78.10
76269;DHT22;65088;52.352;4.846;2022-12-18T04:39:52;-3.30;78.10
76269;DHT22;65088;52.352;4.846;2022-12-18T04:42:34;-3.30;78.00
76269;DHT22;65088;52.352;4.846;2022-12-18T04:45:09;-3.40;78.00
76269;DHT22;65088;52.352;4.846;2022-12-18T04:47:59;-3.40;78.20
76269;DHT22;65088;52.352;4.846;2022-12-18T04:50:31;-3.50;78.20
76269;DHT22;65088;52.352;4.846;2022-12-18T04:53:03;-3.50;78.10
76269;DHT22;65088;52.352;4.846;2022-12-18T04:55:37;-3.50;78.20
76269;DHT22;65088;52.352;4.846;2022-12-18T04:58:07;-3.50;78.30
76269;DHT22;65088;52.352;4.846;2022-12-18T05:00:38;-3.60;78.20
76269;DHT22;65088;52.352;4.846;2022-12-18T05:03:13;-3.60;78.20
76269;DHT22;65088;52.352;4.846;2022-12-18T05:05:43;-3.60;78.00
76269;DHT22;65088;52.352;4.846;2022-12-18T05:08:14;-3.70;77.90
76269;DHT22;65088;52.352;4.846;2022-12-18T05:10:45;-3.80;78.00
76269;DHT22;65088;52.352;4.846;2022-12-18T05:13:19;-3.70;78.30
76269;DHT22;65088;52.352;4.846;2022-12-18T05:16:07;-3.70;78.40
76269;DHT22;65088;52.352;4.846;2022-12-18T05:18:46;-3.70;78.30
76269;DHT22;65088;52.352;4.846;2022-12-18T05:21:18;-3.70;78.50
76269;DHT22;65088;52.352;4.846;2022-12-18T05:23:51;-3.70;78.40
76269;DHT22;65088;52.352;4.846;2022-12-18T05:26:21;-3.70;78.40
76269;DHT22;65088;52.352;4.846;2022-12-18T05:28:51;-3.70;78.40
76269;DHT22;65088;52.352;4.846;2022-12-18T05:31:21;-3.70;78.30
76269;DHT22;65088;52.352;4.846;2022-12-18T05:33:54;-3.70;78.30
76269;DHT22;65088;52.352;4.846;2022-12-18T05:36:28;-3.70;78.30
76269;DHT22;65088;52.352;4.846;2022-12-18T05:39:01;-3.70;78.50
76269;DHT22;65088;52.352;4.846;2022-12-18T05:41:31;-3.70;78.70
76269;DHT22;65088;52.352;4.846;2022-12-18T05:44:01;-3.60;78.80
76269;DHT22;65088;52.352;4.846;2022-12-18T05:46:34;-3.60;78.50
76269;DHT22;65088;52.352;4.846;2022-12-18T05:49:11;-3.60;78.30
76269;DHT22;65088;52.352;4.846;2022-12-18T05:51:40;-3.60;78.20
76269;DHT22;65088;52.352;4.846;2022-12-18T05:54:18;-3.70;78.10
76269;DHT22;65088;52.352;4.846;2022-12-18T05:56:50;-3.70;78.30
76269;DHT22;65088;52.352;4.846;2022-12-18T05:59:29;-3.70;78.40
76269;DHT22;65088;52.352;4.846;2022-12-18T06:02:02;-3.70;78.40
76269;DHT22;65088;52.352;4.846;2022-12-18T06:04:35;-3.70;78.40
76269;DHT22;65088;52.352;4.846;2022-12-18T06:07:06;-3.70;78.30
76269;DHT22;65088;52.352;4.846;2022-12-18T06:09:43;-3.70;78.30
76269;DHT22;65088;52.352;4.846;2022-12-18T06:12:15;-3.70;78.40
76269;DHT22;65088;52.352;4.846;2022-12-18T06:14:45;-3.70;78.30
76269;DHT22;65088;52.352;4.846;2022-12-18T06:17:17;-3.70;78.30
76269;DHT22;65088;52.352;4.846;2022-12-18T06:19:50;-3.70;78.20
76269;DHT22;65088;52.352;4.846;2022-12-18T06:22:24;-3.80;78.20
76269;DHT22;65088;52.352;4.846;2022-12-18T06:24:54;-3.80;78.20
76269;DHT22;65088;52.352;4.846;2022-12-18T06:27:26;-3.80;78.20
76269;DHT22;65088;52.352;4.846;2022-12-18T06:30:01;-3.80;78.60
76269;DHT22;65088;52.352;4.846;2022-12-18T06:32:31;-3.80;78.70
76269;DHT22;65088;52.352;4.846;2022-12-18T06:35:09;-3.70;78.70
76269;DHT22;65088;52.352;4.846;2022-12-18T06:37:41;-3.70;78.60
76269;DHT22;65088;52.352;4.846;2022-12-18T06:40:21;-3.70;78.40
76269;DHT22;65088;52.352;4.846;2022-12-18T06:43:00;-3.70;78.30
76269;DHT22;65088;52.352;4.846;2022-12-18T06:45:29;-3.70;78.60
76269;DHT22;65088;52.352;4.846;2022-12-18T06:48:09;-3.60;78.60
76269;DHT22;65088;52.352;4.846;2022-12-18T06:50:46;-3.60;78.40
76269;DHT22;65088;52.352;4.846;2022-12-18T06:53:21;-3.60;78.40
76269;DHT22;65088;52.352;4.846;2022-12-18T06:55:51;-3.60;78.40
76269;DHT22;65088;52.352;4.846;2022-12-18T06:58:21;-3.60;78.50
76269;DHT22;65088;52.352;4.846;2022-12-18T07:00:53;-3.60;78.60
76269;DHT22;65088;52.352;4.846;2022-12-18T07:03:22;-3.50;78.60
76269;DHT22;65088;52.352;4.846;2022-12-18T07:05:55;-3.50;78.50
76269;DHT22;65088;52.352;4.846;2022-12-18T07:08:25;-3.50;78.30
76269;DHT22;65088;52.352;4.846;2022-12-18T07:10:55;-3.50;78.20
76269;DHT22;65088;52.352;4.846;2022-12-18T07:13:31;-3.50;78.10
76269;DHT22;65088;52.352;4.846;2022-12-18T07:16:07;-3.60;78.00
76269;DHT22;65088;52.352;4.846;2022-12-18T07:18:40;-3.60;77.90
76269;DHT22;65088;52.352;4.846;2022-12-18T07:21:19;-3.60;77.90
76269;DHT22;65088;52.352;4.846;2022-12-18T07:23:51;-3.70;77.90
76269;DHT22;65088;52.352;4.846;2022-12-18T07:26:21;-3.70;77.90
76269;DHT22;65088;52.352;4.846;2022-12-18T07:28:54;-3.70;78.00
76269;DHT22;65088;52.352;4.846;2022-12-18T07:31:26;-3.70;78.00
76269;DHT22;65088;52.352;4.846;2022-12-18T07:34:11;-3.80;78.00
76269;DHT22;65088;52.352;4.846;2022-12-18T07:36:52;-3.70;78.10
76269;DHT22;65088;52.352;4.846;2022-12-18T07:39:29;-3.70;78.00
76269;DHT22;65088;52.352;4.846;2022-12-18T07:42:00;-3.70;78.20
76269;DHT22;65088;52.352;4.846;2022-12-18T07:44:50;-3.60;78.00
76269;DHT22;65088;52.352;4.846;2022-12-18T07:47:20;-3.60;78.00
76269;DHT22;65088;52.352;4.846;2022-12-18T07:49:54;-3.60;78.10
76269;DHT22;65088;52.352;4.846;2022-12-18T07:52:29;-3.50;78.00
76269;DHT22;65088;52.352;4.846;2022-12-18T07:55:00;-3.50;77.80
76269;DHT22;65088;52.352;4.846;2022-12-18T07:57:32;-3.50;77.70
76269;DHT22;65088;52.352;4.846;2022-12-18T08:00:04;-3.50;77.60
76269;DHT22;65088;52.352;4.846;2022-12-18T08:02:38;-3.40;77.80
76269;DHT22;65088;52.352;4.846;2022-12-18T08:05:11;-3.30;77.70
76269;DHT22;65088;52.352;4.846;2022-12-18T08:07:46;-3.30;77.70
76269;DHT22;65088;52.352;4.846;2022-12-18T08:10:17;-3.20;77.40
76269;DHT22;65088;52.352;4.846;2022-12-18T08:12:51;-3.20;77.40
76269;DHT22;65088;52.352;4.846;2022-12-18T08:15:23;-3.20;77.00
76269;DHT22;65088;52.352;4.846;2022-12-18T08:17:58;-3.20;77.00
76269;DHT22;65088;52.352;4.846;2022-12-18T08:20:29;-3.10;77.00
76269;DHT22;65088;52.352;4.846;2022-12-18T08:23:03;-3.10;77.00
76269;DHT22;65088;52.352;4.846;2022-12-18T08:25:37;-3.10;76.90
76269;DHT22;65088;52.352;4.846;2022-12-18T08:28:09;-3.10;76.80
76269;DHT22;65088;52.352;4.846;2022-12-18T08:30:46;-3.10;76.90
76269;DHT22;65088;52.352;4.846;2022-12-18T08:33:31;-3.10;76.80
76269;DHT22;65088;52.352;4.846;2022-12-18T08:36:03;-3.10;77.00
76269;DHT22;65088;52.352;4.846;2022-12-18T08:38:37;-3.00;77.00
76269;DHT22;65088;52.352;4.846;2022-12-18T08:41:08;-3.00;76.90
76269;DHT22;65088;52.352;4.846;2022-12-18T08:43:39;-2.90;76.80
76269;DHT22;65088;52.352;4.846;2022-12-18T08:46:22;-3.00;76.70
76269;DHT22;65088;52.352;4.846;2022-12-18T08:48:55;-2.90;76.90
76269;DHT22;65088;52.352;4.846;2022-12-18T08:51:28;-2.80;76.90
76269;DHT22;65088;52.352;4.846;2022-12-18T08:54:03;-2.70;76.60
76269;DHT22;65088;52.352;4.846;2022-12-18T08:56:41;-2.60;76.60
76269;DHT22;65088;52.352;4.846;2022-12-18T08:59:14;-2.50;76.60
76269;DHT22;65088;52.352;4.846;2022-12-18T09:01:44;-2.40;76.60
76269;DHT22;65088;52.352;4.846;2022-12-18T09:04:22;-2.30;76.50
76269;DHT22;65088;52.352;4.846;2022-12-18T09:06:56;-2.30;76.20
76269;DHT22;65088;52.352;4.846;2022-12-18T09:09:28;-2.20;76.10
76269;DHT22;65088;52.352;4.846;2022-12-18T09:11:58;-2.20;76.00
76269;DHT22;65088;52.352;4.846;2022-12-18T09:14:27;-2.20;76.00
76269;DHT22;65088;52.352;4.846;2022-12-18T09:16:57;-2.10;75.70
76269;DHT22;65088;52.352;4.846;2022-12-18T09:19:33;-2.10;75.60
76269;DHT22;65088;52.352;4.846;2022-12-18T09:22:14;-2.10;75.50
76269;DHT22;65088;52.352;4.846;2022-12-18T09:24:50;-2.00;75.60
76269;DHT22;65088;52.352;4.846;2022-12-18T09:27:25;-1.90;75.70
76269;DHT22;65088;52.352;4.846;2022-12-18T09:29:55;-1.90;75.60
76269;DHT22;65088;52.352;4.846;2022-12-18T09:32:26;-1.80;75.50
76269;DHT22;65088;52.352;4.846;2022-12-18T09:34:56;-1.80;75.70
76269;DHT22;65088;52.352;4.846;2022-12-18T09:37:25;-1.70;75.50
76269;DHT22;65088;52.352;4.846;2022-12-18T09:39:59;-1.60;75.40
76269;DHT22;65088;52.352;4.846;2022-12-18T09:42:28;-1.50;75.40
76269;DHT22;65088;52.352;4.846;2022-12-18T09:44:58;-1.40;75.10
76269;DHT22;65088;52.352;4.846;2022-12-18T09:47:32;-1.30;75.20
76269;DHT22;65088;52.352;4.846;2022-12-18T09:50:15;-1.30;75.00
76269;DHT22;65088;52.352;4.846;2022-12-18T09:52:50;-1.20;75.00
76269;DHT22;65088;52.352;4.846;2022-12-18T09:55:28;-1.10;74.80
76269;DHT22;65088;52.352;4.846;2022-12-18T09:58:02;-1.10;74.70
76269;DHT22;65088;52.352;4.846;2022-12-18T10:00:34;-1.10;74.60
76269;DHT22;65088;52.352;4.846;2022-12-18T10:03:08;-1.00;74.20
76269;DHT22;65088;52.352;4.846;2022-12-18T10:05:39;-1.00;74.10
76269;DHT22;65088;52.352;4.846;2022-12-18T10:08:15;-1.00;73.80
76269;DHT22;65088;52.352;4.846;2022-12-18T10:10:52;-1.00;73.80
76269;DHT22;65088;52.352;4.846;2022-12-18T10:13:28;-0.90;73.80
76269;DHT22;65088;52.352;4.846;2022-12-18T10:16:07;-0.90;73.50
76269;DHT22;65088;52.352;4.846;2022-12-18T10:18:56;-0.90;73.30
76269;DHT22;65088;52.352;4.846;2022-12-18T10:21:32;-0.80;73.40
76269;DHT22;65088;52.352;4.846;2022-12-18T10:24:11;-0.80;73.40
76269;DHT22;65088;52.352;4.846;2022-12-18T10:26:47;-0.70;73.40
76269;DHT22;65088;52.352;4.846;2022-12-18T10:29:17;-0.70;73.20
76269;DHT22;65088;52.352;4.846;2022-12-18T10:31:46;-0.60;73.10
76269;DHT22;65088;52.352;4.846;2022-12-18T10:34:18;-0.50;72.80
76269;DHT22;65088;52.352;4.846;2022-12-18T10:36:48;-0.60;72.70
76269;DHT22;65088;52.352;4.846;2022-12-18T10:39:19;-0.50;72.80
76269;DHT22;65088;52.352;4.846;2022-12-18T10:41:51;-0.40;72.70
76269;DHT22;65088;52.352;4.846;2022-12-18T10:44:23;-0.30;72.70
76269;DHT22;65088;52.352;4.846;2022-12-18T10:46:55;-0.20;72.50
76269;DHT22;65088;52.352;4.846;2022-12-18T10:49:32;-0.20;72.40
76269;DHT22;65088;52.352;4.846;2022-12-18T10:52:14;-0.10;72.20
76269;DHT22;65088;52.352;4.846;2022-12-18T10:54:49;-0.10;72.10
76269;DHT22;65088;52.352;4.846;2022-12-18T10:57:35;0.00;71.60
76269;DHT22;65088;52.352;4.846;2022-12-18T11:00:23;0.00;71.90
76269;DHT22;65088;52.352;4.846;2022-12-18T11:02:54;0.20;71.90
76269;DHT22;65088;52.352;4.846;2022-12-18T11:05:28;0.30;71.60
76269;DHT22;65088;52.352;4.846;2022-12-18T11:08:00;0.30;71.70
76269;DHT22;65088;52.352;4.846;2022-12-18T11:10:32;0.40;71.50
76269;DHT22;65088;52.352;4.846;2022-12-18T11:13:16;0.40;71.10
76269;DHT22;65088;52.352;4.846;2022-12-18T11:15:46;0.50;71.00
76269;DHT22;65088;52.352;4.846;2022-12-18T11:18:19;0.50;70.50
76269;DHT22;65088;52.352;4.846;2022-12-18T11:20:53;0.50;70.60
76269;DHT22;65088;52.352;4.846;2022-12-18T11:23:26;0.60;70.20
76269;DHT22;65088;52.352;4.846;2022-12-18T11:26:00;0.60;70.30
76269;DHT22;65088;52.352;4.846;2022-12-18T11:28:38;0.60;70.00
76269;DHT22;65088;52.352;4.846;2022-12-18T11:31:22;0.70;70.20
76269;DHT22;65088;52.352;4.846;2022-12-18T11:34:01;0.80;70.00
76269;DHT22;65088;52.352;4.846;2022-12-18T11:36:36;0.80;69.60
76269;DHT22;65088;52.352;4.846;2022-12-18T11:39:12;0.80;69.70
76269;DHT22;65088;52.352;4.846;2022-12-18T11:41:49;0.80;69.90
76269;DHT22;65088;52.352;4.846;2022-12-18T11:44:40;0.80;69.70
76269;DHT22;65088;52.352;4.846;2022-12-18T11:47:17;0.90;69.80
76269;DHT22;65088;52.352;4.846;2022-12-18T11:49:49;0.90;69.50
76269;DHT22;65088;52.352;4.846;2022-12-18T11:52:22;0.90;69.50
76269;DHT22;65088;52.352;4.846;2022-12-18T11:54:56;1.00;69.40
76269;DHT22;65088;52.352;4.846;2022-12-18T11:57:35;0.90;69.10
76269;DHT22;65088;52.352;4.846;2022-12-18T12:00:15;1.00;69.30
76269;DHT22;65088;52.352;4.846;2022-12-18T12:06:03;1.10;69.20
76269;DHT22;65088;52.352;4.846;2022-12-18T12:08:54;1.10;68.90
76269;DHT22;65088;52.352;4.846;2022-12-18T12:11:33;1.20;68.90
76269;DHT22;65088;52.352;4.846;2022-12-18T12:14:15;1.20;68.90
76269;DHT22;65088;52.352;4.846;2022-12-18T12:16:53;1.30;68.80
76269;DHT22;65088;52.352;4.846;2022-12-18T12:19:34;1.40;68.80
76269;DHT22;65088;52.352;4.846;2022-12-18T12:22:10;1.50;68.90
76269;DHT22;65088;52.352;4.846;2022-12-18T12:24:53;1.50;68.80
76269;DHT22;65088;52.352;4.846;2022-12-18T12:27:33;1.50;68.60
76269;DHT22;65088;52.352;4.846;2022-12-18T12:30:08;1.60;68.70
76269;DHT22;65088;52.352;4.846;2022-12-18T12:33:02;1.60;68.40
76269;DHT22;65088;52.352;4.846;2022-12-18T12:35:46;1.60;68.40
76269;DHT22;65088;52.352;4.846;2022-12-18T12:38:21;1.70;68.50
76269;DHT22;65088;52.352;4.846;2022-12-18T12:40:58;1.60;68.00
76269;DHT22;65088;52.352;4.846;2022-12-18T12:43:35;1.60;67.80
76269;DHT22;65088;52.352;4.846;2022-12-18T12:46:05;1.60;68.10
76269;DHT22;65088;52.352;4.846;2022-12-18T12:48:43;1.60;67.90
76269;DHT22;65088;52.352;4.846;2022-12-18T12:51:16;1.50;67.70
76269;DHT22;65088;52.352;4.846;2022-12-18T12:53:47;1.50;67.80
76269;DHT22;65088;52.352;4.846;2022-12-18T12:56:19;1.60;67.80
76269;DHT22;65088;52.352;4.846;2022-12-18T12:58:56;1.60;67.70
76269;DHT22;65088;52.352;4.846;2022-12-18T13:01:34;1.60;67.80
76269;DHT22;65088;52.352;4.846;2022-12-18T13:04:18;1.60;67.80
76269;DHT22;65088;52.352;4.846;2022-12-18T13:06:55;1.50;67.50
76269;DHT22;65088;52.352;4.846;2022-12-18T13:09:31;1.50;67.70
76269;DHT22;65088;52.352;4.846;2022-12-18T13:12:03;1.60;67.80
76269;DHT22;65088;52.352;4.846;2022-12-18T13:14:45;1.60;67.70
76269;DHT22;65088;52.352;4.846;2022-12-18T13:17:16;1.60;67.60
76269;DHT22;65088;52.352;4.846;2022-12-18T13:19:52;1.50;67.20
76269;DHT22;65088;52.352;4.846;2022-12-18T13:22:33;1.50;67.10
76269;DHT22;65088;52.352;4.846;2022-12-18T13:25:17;1.50;67.40
76269;DHT22;65088;52.352;4.846;2022-12-18T13:30:48;1.50;67.70
76269;DHT22;65088;52.352;4.846;2022-12-18T13:33:41;1.60;67.90
76269;DHT22;65088;52.352;4.846;2022-12-18T13:36:32;1.60;67.80
76269;DHT22;65088;52.352;4.846;2022-12-18T13:39:24;1.60;67.80
76269;DHT22;65088;52.352;4.846;2022-12-18T13:42:39;1.70;67.60
76269;DHT22;65088;52.352;4.846;2022-12-18T13:45:46;1.70;67.60
76269;DHT22;65088;52.352;4.846;2022-12-18T13:48:22;1.70;67.60
76269;DHT22;65088;52.352;4.846;2022-12-18T13:50:55;1.70;67.50
76269;DHT22;65088;52.352;4.846;2022-12-18T13:53:39;1.70;67.70
76269;DHT22;65088;52.352;4.846;2022-12-18T13:56:16;1.70;67.50
76269;DHT22;65088;52.352;4.846;2022-12-18T13:59:10;1.70;67.70
76269;DHT22;65088;52.352;4.846;2022-12-18T14:01:48;1.70;67.80
76269;DHT22;65088;52.352;4.846;2022-12-18T14:04:21;1.70;67.80
76269;DHT22;65088;52.352;4.846;2022-12-18T14:06:53;1.70;67.80
76269;DHT22;65088;52.352;4.846;2022-12-18T14:09:31;1.70;67.60
76269;DHT22;65088;52.352;4.846;2022-12-18T14:12:03;1.80;67.70
76269;DHT22;65088;52.352;4.846;2022-12-18T14:14:48;1.80;67.60
76269;DHT22;65088;52.352;4.846;2022-12-18T14:17:19;1.80;67.50
76269;DHT22;65088;52.352;4.846;2022-12-18T14:19:50;1.80;67.30
76269;DHT22;65088;52.352;4.846;2022-12-18T14:22:21;1.70;67.20
76269;DHT22;65088;52.352;4.846;2022-12-18T14:25:14;1.70;67.30
76269;DHT22;65088;52.352;4.846;2022-12-18T14:27:47;1.70;67.10
76269;DHT22;65088;52.352;4.846;2022-12-18T14:30:28;1.70;67.10
76269;DHT22;65088;52.352;4.846;2022-12-18T14:33:01;1.70;67.30
76269;DHT22;65088;52.352;4.846;2022-12-18T14:35:31;1.70;67.40
76269;DHT22;65088;52.352;4.846;2022-12-18T14:38:26;1.80;67.50
76269;DHT22;65088;52.352;4.846;2022-12-18T14:41:00;1.80;67.30
76269;DHT22;65088;52.352;4.846;2022-12-18T14:43:32;1.70;67.40
76269;DHT22;65088;52.352;4.846;2022-12-18T14:46:03;1.70;67.30
76269;DHT22;65088;52.352;4.846;2022-12-18T14:48:37;1.70;67.20
76269;DHT22;65088;52.352;4.846;2022-12-18T14:51:15;1.80;67.30
76269;DHT22;65088;52.352;4.846;2022-12-18T14:53:48;1.80;67.30
76269;DHT22;65088;52.352;4.846;2022-12-18T14:56:22;1.80;67.50
76269;DHT22;65088;52.352;4.846;2022-12-18T14:58:54;1.80;67.30
76269;DHT22;65088;52.352;4.846;2022-12-18T15:01:29;1.80;67.20
76269;DHT22;65088;52.352;4.846;2022-12-18T15:04:00;1.70;67.30
76269;DHT22;65088;52.352;4.846;2022-12-18T15:06:33;1.80;67.30
76269;DHT22;65088;52.352;4.846;2022-12-18T15:09:21;1.80;67.10
76269;DHT22;65088;52.352;4.846;2022-12-18T15:11:56;1.80;67.30
76269;DHT22;65088;52.352;4.846;2022-12-18T15:14:34;1.80;67.30
76269;DHT22;65088;52.352;4.846;2022-12-18T15:17:12;1.80;67.30
76269;DHT22;65088;52.352;4.846;2022-12-18T15:19:44;1.90;67.40
76269;DHT22;65088;52.352;4.846;2022-12-18T15:22:24;1.90;67.30
76269;DHT22;65088;52.352;4.846;2022-12-18T15:24:54;1.90;67.20
76269;DHT22;65088;52.352;4.846;2022-12-18T15:27:29;1.90;67.30
76269;DHT22;65088;52.352;4.846;2022-12-18T15:30:02;1.90;67.30
76269;DHT22;65088;52.352;4.846;2022-12-18T15:32:32;1.90;67.00
76269;DHT22;65088;52.352;4.846;2022-12-18T15:35:07;1.90;66.90
76269;DHT22;65088;52.352;4.846;2022-12-18T15:37:41;1.80;66.70
76269;DHT22;65088;52.352;4.846;2022-12-18T15:40:13;1.80;66.90
76269;DHT22;65088;52.352;4.846;2022-12-18T15:42:46;1.90;67.20
76269;DHT22;65088;52.352;4.846;2022-12-18T15:45:28;1.90;66.90
76269;DHT22;65088;52.352;4.846;2022-12-18T15:47:58;1.80;66.60
76269;DHT22;65088;52.352;4.846;2022-12-18T15:50:27;1.90;66.70
76269;DHT22;65088;52.352;4.846;2022-12-18T15:52:57;1.90;66.90
76269;DHT22;65088;52.352;4.846;2022-12-18T15:55:28;1.90;66.90
76269;DHT22;65088;52.352;4.846;2022-12-18T15:58:12;1.90;67.00
76269;DHT22;65088;52.352;4.846;2022-12-18T16:00:42;2.00;67.00
76269;DHT22;65088;52.352;4.846;2022-12-18T16:03:11;2.00;66.80
76269;DHT22;65088;52.352;4.846;2022-12-18T16:05:40;2.00;66.50
76269;DHT22;65088;52.352;4.846;2022-12-18T16:08:10;1.90;66.40
76269;DHT22;65088;52.352;4.846;2022-12-18T16:10:39;1.90;66.20
76269;DHT22;65088;52.352;4.846;2022-12-18T16:13:13;1.90;66.00
76269;DHT22;65088;52.352;4.846;2022-12-18T16:15:44;1.90;66.00
76269;DHT22;65088;52.352;4.846;2022-12-18T16:18:13;1.90;66.30
76269;DHT22;65088;52.352;4.846;2022-12-18T16:20:43;1.90;65.90
76269;DHT22;65088;52.352;4.846;2022-12-18T16:23:12;1.90;65.80
76269;DHT22;65088;52.352;4.846;2022-12-18T16:25:41;1.90;65.90
76269;DHT22;65088;52.352;4.846;2022-12-18T16:28:13;1.90;65.80
76269;DHT22;65088;52.352;4.846;2022-12-18T16:30:43;1.90;65.50